Time;durP1;ratioP1;P1;durP2;ratioP2;P2;SDS_P1;SDS_P2;PMS_P1;PMS_P2;Temp;Humidity;BMP_temperature;BMP_pressure;BME280_temperature;BME280_humidity;BME280_pressure;Samples;Min_cycle;Max_cycle;Signal;HPM_P1;HPM_P2
2023/05/22 00:01:05;;;;;;;14.43;12.97;;;;;;;;;;5031500;28;20848;-80
2023/05/22 00:03:32;;;;;;;15.43;12.80;;;;;;;;;;5027468;28;20452;-80
2023/05/22 00:05:59;;;;;;;13.50;12.10;;;;;;;;;;5030836;28;20548;-80
2023/05/22 00:08:26;;;;;;;13.40;12.03;;;;;;;;;;5027245;28;20466;-80
2023/05/22 00:10:53;;;;;;;14.63;12.00;;;;;;;;;;5022909;28;20447;-80
2023/05/22 00:13:19;;;;;;;13.93;12.43;;;;;;;;;;5033535;28;20437;-80
2023/05/22 00:15:45;;;;;;;14.50;12.13;;;;;;;;;;5030414;28;20464;-80
2023/05/22 00:18:12;;;;;;;15.07;11.23;;;;;;;;;;5027161;28;20484;-80
2023/05/22 00:20:39;;;;;;;12.00;10.80;;;;;;;;;;5029488;28;20530;-80
2023/05/22 00:23:08;;;;;;;13.20;11.90;;;;;;;;;;5033433;28;20523;-80
2023/05/22 00:25:36;;;;;;;13.50;11.77;;;;;;;;;;5034884;28;20464;-80
2023/05/22 00:28:03;;;;;;;14.57;12.37;;;;;;;;;;5033756;28;20438;-80
2023/05/22 00:30:29;;;;;;;12.90;10.50;;;;;;;;;;5035174;28;20465;-79
2023/05/22 00:32:56;;;;;;;11.70;10.50;;;;;;;;;;5014377;28;20444;-81
2023/05/22 00:35:22;;;;;;;13.33;12.03;;;;;;;;;;5032542;28;20473;-80
2023/05/22 00:37:49;;;;;;;13.40;12.00;;;;;;;;;;5022255;28;20487;-80
2023/05/22 00:40:15;;;;;;;14.13;10.60;;;;;;;;;;5029402;28;20874;-80
2023/05/22 00:42:45;;;;;;;13.10;11.63;;;;;;;;;;5031649;28;20448;-80
2023/05/22 00:45:13;;;;;;;13.90;12.40;;;;;;;;;;5023468;28;20918;-80
2023/05/22 00:47:39;;;;;;;14.00;12.60;;;;;;;;;;5029214;28;20469;-80
2023/05/22 00:50:07;;;;;;;13.40;12.10;;;;;;;;;;5001867;28;20466;-80
2023/05/22 00:52:34;;;;;;;12.63;11.43;;;;;;;;;;5029558;28;20902;-79
2023/05/22 00:55:02;;;;;;;13.43;12.13;;;;;;;;;;5034223;28;20448;-80
2023/05/22 00:57:29;;;;;;;10.83;9.83;;;;;;;;;;5033414;28;20473;-80
2023/05/22 00:59:57;;;;;;;18.80;11.73;;;;;;;;;;5027517;28;20466;-80
2023/05/22 01:02:24;;;;;;;11.77;10.70;;;;;;;;;;5033726;28;20447;-79
2023/05/22 01:04:50;;;;;;;13.17;11.77;;;;;;;;;;5010308;28;20878;-80
2023/05/22 01:07:17;;;;;;;13.10;11.90;;;;;;;;;;5032617;28;20479;-80
2023/05/22 01:09:44;;;;;;;13.00;11.17;;;;;;;;;;5033330;28;20496;-79
2023/05/22 01:12:16;;;;;;;13.27;11.97;;;;;;;;;;5015605;28;20472;-80
2023/05/22 01:14:46;;;;;;;12.60;11.40;;;;;;;;;;5032054;28;20469;-80
2023/05/22 01:17:21;;;;;;;14.53;11.60;;;;;;;;;;5030767;28;20460;-80
2023/05/22 01:19:59;;;;;;;11.93;10.73;;;;;;;;;;5033242;28;20581;-80
2023/05/22 01:22:30;;;;;;;13.50;12.10;;;;;;;;;;5027135;28;20422;-80
2023/05/22 01:25:05;;;;;;;11.43;10.33;;;;;;;;;;5032891;28;21062;-80
2023/05/22 01:27:42;;;;;;;13.77;12.30;;;;;;;;;;5030017;28;20495;-80
2023/05/22 01:30:17;;;;;;;12.77;11.37;;;;;;;;;;5029241;28;20468;-80
2023/05/22 01:32:46;;;;;;;13.00;11.87;;;;;;;;;;5008462;28;20780;-80
2023/05/22 01:35:14;;;;;;;15.00;11.70;;;;;;;;;;5025242;28;20443;-80
2023/05/22 01:37:42;;;;;;;14.10;11.37;;;;;;;;;;5025034;28;20448;-78
2023/05/22 01:40:09;;;;;;;12.30;11.10;;;;;;;;;;5028449;28;20469;-79
2023/05/22 01:42:36;;;;;;;13.07;11.73;;;;;;;;;;5030702;28;20520;-79
2023/05/22 01:45:02;;;;;;;11.70;10.50;;;;;;;;;;5031238;28;20469;-80
2023/05/22 01:47:29;;;;;;;13.30;12.00;;;;;;;;;;5015525;28;20465;-79
2023/05/22 01:49:56;;;;;;;12.87;11.67;;;;;;;;;;5027229;28;20448;-78
2023/05/22 01:52:27;;;;;;;13.23;11.93;;;;;;;;;;5029336;28;20464;-80
2023/05/22 01:54:57;;;;;;;13.13;11.83;;;;;;;;;;5030911;28;20469;-80
2023/05/22 01:57:26;;;;;;;11.77;10.60;;;;;;;;;;5018100;28;20492;-80
2023/05/22 01:59:55;;;;;;;13.53;12.23;;;;;;;;;;5028781;28;20477;-80
2023/05/22 02:02:23;;;;;;;14.30;11.97;;;;;;;;;;5030239;28;20423;-78
2023/05/22 02:04:52;;;;;;;12.53;11.43;;;;;;;;;;5028953;28;20470;-78
2023/05/22 02:07:21;;;;;;;13.00;11.70;;;;;;;;;;5026374;28;20484;-78
2023/05/22 02:09:48;;;;;;;12.90;11.60;;;;;;;;;;5012482;28;20470;-78
2023/05/22 02:12:14;;;;;;;12.30;11.20;;;;;;;;;;5031114;28;20965;-80
2023/05/22 02:14:42;;;;;;;12.20;10.90;;;;;;;;;;5033061;28;20985;-78
2023/05/22 02:17:08;;;;;;;12.87;11.67;;;;;;;;;;5025012;28;20472;-79
2023/05/22 02:19:36;;;;;;;13.57;12.27;;;;;;;;;;5027629;28;20481;-79
2023/05/22 02:22:02;;;;;;;17.20;12.20;;;;;;;;;;5030255;28;20469;-79
2023/05/22 02:24:31;;;;;;;13.47;11.97;;;;;;;;;;5021733;28;20469;-78
2023/05/22 02:26:58;;;;;;;13.17;11.80;;;;;;;;;;5033905;28;20454;-79
2023/05/22 02:29:24;;;;;;;14.63;10.97;;;;;;;;;;5032317;28;20472;-79
2023/05/22 02:31:53;;;;;;;13.07;11.90;;;;;;;;;;5030146;28;20930;-78
2023/05/22 02:34:19;;;;;;;13.87;12.53;;;;;;;;;;5030637;28;20454;-78
2023/05/22 02:36:46;;;;;;;13.50;11.93;;;;;;;;;;5031756;28;20939;-78
2023/05/22 02:39:12;;;;;;;13.57;12.03;;;;;;;;;;5024427;28;20833;-78
2023/05/22 02:41:40;;;;;;;12.60;11.40;;;;;;;;;;5029966;28;20940;-79
2023/05/22 02:44:06;;;;;;;13.87;12.57;;;;;;;;;;5018956;28;20470;-78
2023/05/22 02:46:33;;;;;;;14.07;12.20;;;;;;;;;;5025765;28;20448;-79
2023/05/22 02:48:59;;;;;;;14.17;12.53;;;;;;;;;;5030188;28;20818;-78
2023/05/22 02:51:26;;;;;;;16.97;12.70;;;;;;;;;;5030424;28;20503;-79
2023/05/22 02:53:52;;;;;;;14.30;12.90;;;;;;;;;;5026401;28;20415;-79
2023/05/22 02:56:19;;;;;;;12.83;11.63;;;;;;;;;;5021562;28;20781;-79
2023/05/22 02:58:47;;;;;;;13.40;12.10;;;;;;;;;;5026004;28;20462;-79
2023/05/22 03:01:17;;;;;;;13.60;12.40;;;;;;;;;;5033162;28;20445;-79
2023/05/22 03:03:43;;;;;;;13.37;12.17;;;;;;;;;;5030168;28;20455;-79
2023/05/22 03:06:10;;;;;;;14.40;12.87;;;;;;;;;;5010275;28;20504;-79
2023/05/22 03:08:40;;;;;;;13.53;12.23;;;;;;;;;;5032476;28;20472;-79
2023/05/22 03:11:06;;;;;;;13.50;10.90;;;;;;;;;;5015849;28;20475;-79
2023/05/22 03:13:33;;;;;;;13.03;11.70;;;;;;;;;;5032134;28;20452;-79
2023/05/22 03:16:01;;;;;;;13.00;11.73;;;;;;;;;;5024486;28;20994;-79
2023/05/22 03:18:27;;;;;;;16.70;12.90;;;;;;;;;;5022876;28;20464;-79
2023/05/22 03:20:53;;;;;;;12.23;11.03;;;;;;;;;;5025858;28;20443;-79
2023/05/22 03:23:20;;;;;;;16.00;13.03;;;;;;;;;;5024434;28;20466;-78
2023/05/22 03:25:46;;;;;;;12.80;11.50;;;;;;;;;;5026003;28;20818;-79
2023/05/22 03:28:13;;;;;;;12.57;11.33;;;;;;;;;;5027519;28;20476;-79
2023/05/22 03:30:40;;;;;;;13.07;11.77;;;;;;;;;;5028270;28;20461;-78
2023/05/22 03:33:07;;;;;;;12.27;11.07;;;;;;;;;;5030516;28;20549;-78
2023/05/22 03:35:35;;;;;;;14.40;12.50;;;;;;;;;;5026934;28;20443;-78
2023/05/22 03:38:01;;;;;;;12.67;11.47;;;;;;;;;;5029132;28;20470;-79
2023/05/22 03:40:27;;;;;;;10.97;10.07;;;;;;;;;;5030939;28;20476;-78
2023/05/22 03:42:54;;;;;;;11.87;10.77;;;;;;;;;;5029150;28;20427;-79
2023/05/22 03:45:20;;;;;;;13.10;11.80;;;;;;;;;;5014678;28;20469;-78
2023/05/22 03:47:47;;;;;;;13.60;12.23;;;;;;;;;;5009277;28;21040;-79
2023/05/22 03:50:14;;;;;;;14.47;11.93;;;;;;;;;;5035646;28;20473;-79
2023/05/22 03:52:41;;;;;;;11.80;10.70;;;;;;;;;;5032042;28;20444;-78
2023/05/22 03:55:08;;;;;;;12.40;11.20;;;;;;;;;;5000973;28;20448;-78
2023/05/22 03:57:35;;;;;;;13.63;12.23;;;;;;;;;;5029737;28;20451;-78
2023/05/22 04:00:08;;;;;;;12.27;11.07;;;;;;;;;;5031577;28;20448;-80
2023/05/22 04:02:37;;;;;;;12.37;11.20;;;;;;;;;;5033937;28;20447;-79
2023/05/22 04:05:05;;;;;;;11.47;10.33;;;;;;;;;;5023181;28;20854;-79
2023/05/22 04:07:33;;;;;;;13.23;11.87;;;;;;;;;;5025216;28;20451;-79
2023/05/22 04:09:59;;;;;;;12.47;11.27;;;;;;;;;;5034667;28;20826;-79
2023/05/22 04:12:25;;;;;;;13.10;11.80;;;;;;;;;;5034837;28;20438;-79
2023/05/22 04:14:52;;;;;;;21.63;12.07;;;;;;;;;;5023913;28;20459;-79
2023/05/22 04:17:18;;;;;;;12.83;11.37;;;;;;;;;;5029077;28;20451;-79
2023/05/22 04:19:44;;;;;;;15.73;11.23;;;;;;;;;;5033610;28;20854;-79
2023/05/22 04:22:11;;;;;;;14.13;12.23;;;;;;;;;;5030318;28;20445;-78
2023/05/22 04:24:39;;;;;;;13.50;12.10;;;;;;;;;;5027421;28;20854;-79
2023/05/22 04:27:06;;;;;;;11.27;10.20;;;;;;;;;;5030398;28;20835;-79
2023/05/22 04:29:35;;;;;;;14.77;11.23;;;;;;;;;;5033531;28;20439;-79
2023/05/22 04:32:02;;;;;;;13.23;11.90;;;;;;;;;;5032269;28;20435;-79
2023/05/22 04:34:29;;;;;;;13.07;11.77;;;;;;;;;;5028870;28;20472;-79
2023/05/22 04:36:56;;;;;;;12.80;11.50;;;;;;;;;;5031215;28;20459;-78
2023/05/22 04:39:24;;;;;;;12.97;11.70;;;;;;;;;;5032962;28;21010;-79
2023/05/22 04:41:53;;;;;;;12.43;11.23;;;;;;;;;;5029001;28;20938;-78
2023/05/22 04:44:21;;;;;;;12.90;10.93;;;;;;;;;;5025546;28;20474;-79
2023/05/22 04:46:47;;;;;;;14.97;11.97;;;;;;;;;;5033156;28;20526;-79
2023/05/22 04:49:14;;;;;;;13.57;10.93;;;;;;;;;;5021305;28;20540;-78
2023/05/22 04:51:40;;;;;;;12.97;11.60;;;;;;;;;;5030096;28;20812;-80
2023/05/22 04:54:06;;;;;;;12.80;11.50;;;;;;;;;;5034523;28;20443;-79
2023/05/22 04:56:33;;;;;;;12.30;11.10;;;;;;;;;;5034730;28;20464;-80
2023/05/22 04:59:00;;;;;;;12.70;11.17;;;;;;;;;;5029305;28;20463;-78
2023/05/22 05:01:27;;;;;;;12.93;11.83;;;;;;;;;;5033065;28;20431;-79
2023/05/22 05:03:53;;;;;;;12.63;11.43;;;;;;;;;;5035366;28;20456;-78
2023/05/22 05:06:20;;;;;;;11.10;10.00;;;;;;;;;;5034201;28;20907;-78
2023/05/22 05:08:48;;;;;;;11.83;10.43;;;;;;;;;;5030147;28;20463;-78
2023/05/22 05:11:14;;;;;;;15.53;11.57;;;;;;;;;;5032659;28;20435;-79
2023/05/22 05:13:41;;;;;;;12.37;11.17;;;;;;;;;;5020141;28;20427;-79
2023/05/22 05:16:09;;;;;;;13.00;10.60;;;;;;;;;;5034022;28;20531;-79
2023/05/22 05:18:35;;;;;;;12.33;11.10;;;;;;;;;;5032707;28;20435;-79
2023/05/22 05:21:02;;;;;;;13.03;11.63;;;;;;;;;;5013059;28;20558;-78
2023/05/22 05:23:28;;;;;;;12.80;11.23;;;;;;;;;;5033597;28;20423;-79
2023/05/22 05:25:54;;;;;;;13.70;12.30;;;;;;;;;;5030776;28;20451;-80
2023/05/22 05:28:21;;;;;;;12.10;10.70;;;;;;;;;;5014155;28;20986;-80
2023/05/22 05:30:47;;;;;;;13.90;11.87;;;;;;;;;;5031553;28;20456;-80
2023/05/22 05:33:15;;;;;;;13.20;11.97;;;;;;;;;;5022493;28;20475;-79
2023/05/22 05:35:41;;;;;;;12.63;11.43;;;;;;;;;;5024929;28;20469;-79
2023/05/22 05:38:08;;;;;;;12.07;10.97;;;;;;;;;;5032367;28;20463;-78
2023/05/22 05:40:35;;;;;;;13.70;12.47;;;;;;;;;;5015950;28;20482;-79
2023/05/22 05:43:02;;;;;;;14.30;12.87;;;;;;;;;;5030247;28;20937;-79
2023/05/22 05:45:29;;;;;;;16.33;11.20;;;;;;;;;;5028529;28;20472;-79
2023/05/22 05:47:55;;;;;;;12.00;10.90;;;;;;;;;;5030028;28;20451;-79
2023/05/22 05:50:23;;;;;;;12.87;11.37;;;;;;;;;;5032197;28;20432;-78
2023/05/22 05:52:50;;;;;;;13.97;10.47;;;;;;;;;;5034306;28;20439;-79
2023/05/22 05:55:16;;;;;;;13.70;11.40;;;;;;;;;;5032741;28;20468;-78
2023/05/22 05:57:42;;;;;;;13.27;10.83;;;;;;;;;;5032185;28;20889;-78
2023/05/22 06:00:10;;;;;;;12.23;11.03;;;;;;;;;;5027780;28;21004;-79
2023/05/22 06:02:37;;;;;;;11.90;10.87;;;;;;;;;;5023305;28;20443;-80
2023/05/22 06:05:05;;;;;;;11.83;10.70;;;;;;;;;;5025785;28;20899;-78
2023/05/22 06:07:33;;;;;;;13.10;10.63;;;;;;;;;;5027434;28;20448;-78
2023/05/22 06:09:59;;;;;;;11.73;10.63;;;;;;;;;;5027154;28;20515;-81
2023/05/22 06:12:25;;;;;;;10.83;9.70;;;;;;;;;;5028181;28;20472;-78
2023/05/22 06:14:52;;;;;;;12.83;11.50;;;;;;;;;;5032859;28;20499;-78
2023/05/22 06:17:18;;;;;;;14.00;10.37;;;;;;;;;;5032132;28;20978;-78
2023/05/22 06:19:44;;;;;;;13.23;11.90;;;;;;;;;;5026145;28;20909;-79
2023/05/22 06:22:11;;;;;;;11.70;10.50;;;;;;;;;;5030212;28;20445;-79
2023/05/22 06:24:38;;;;;;;12.30;11.10;;;;;;;;;;5027157;28;20465;-79
2023/05/22 06:27:05;;;;;;;11.60;10.30;;;;;;;;;;5027793;28;20839;-79
2023/05/22 06:29:32;;;;;;;11.73;10.63;;;;;;;;;;5030663;28;20993;-78
2023/05/22 06:31:59;;;;;;;12.23;10.93;;;;;;;;;;5033599;28;20462;-78
2023/05/22 06:34:26;;;;;;;11.13;9.97;;;;;;;;;;5028787;28;20464;-79
2023/05/22 06:36:52;;;;;;;11.30;10.07;;;;;;;;;;5032760;28;20500;-79
2023/05/22 06:39:19;;;;;;;14.47;10.10;;;;;;;;;;5021690;28;20477;-78
2023/05/22 06:41:47;;;;;;;11.47;10.37;;;;;;;;;;5024331;28;20514;-78
2023/05/22 06:44:15;;;;;;;12.10;11.00;;;;;;;;;;5025251;28;20468;-79
2023/05/22 06:46:41;;;;;;;11.43;9.77;;;;;;;;;;5032478;28;20942;-79
2023/05/22 06:49:07;;;;;;;12.63;10.87;;;;;;;;;;5028216;28;20480;-79
2023/05/22 06:51:34;;;;;;;11.53;10.43;;;;;;;;;;5028115;28;20464;-79
2023/05/22 06:54:02;;;;;;;12.67;11.37;;;;;;;;;;5011477;28;22163;-79
2023/05/22 06:56:28;;;;;;;12.97;10.60;;;;;;;;;;5031819;28;20423;-79
2023/05/22 06:58:57;;;;;;;12.20;10.90;;;;;;;;;;5022853;28;20997;-79
2023/05/22 07:01:23;;;;;;;16.33;11.97;;;;;;;;;;5027410;28;20727;-79
2023/05/22 07:03:50;;;;;;;11.97;10.77;;;;;;;;;;5031586;28;20460;-79
2023/05/22 07:06:16;;;;;;;13.47;10.87;;;;;;;;;;5014037;28;20452;-78
2023/05/22 07:08:43;;;;;;;12.70;11.43;;;;;;;;;;5026173;28;20488;-79
2023/05/22 07:11:09;;;;;;;11.70;10.70;;;;;;;;;;5031392;28;20448;-79
2023/05/22 07:13:35;;;;;;;13.53;11.70;;;;;;;;;;5030370;28;20956;-79
2023/05/22 07:16:03;;;;;;;12.77;11.57;;;;;;;;;;5027699;28;20469;-79
2023/05/22 07:18:30;;;;;;;12.70;11.50;;;;;;;;;;5027518;28;20469;-79
2023/05/22 07:20:56;;;;;;;13.10;11.90;;;;;;;;;;5029368;28;20516;-79
2023/05/22 07:23:22;;;;;;;13.83;11.30;;;;;;;;;;5035836;28;20456;-79
2023/05/22 07:25:49;;;;;;;12.33;11.10;;;;;;;;;;5033670;28;20480;-78
2023/05/22 07:28:15;;;;;;;11.67;10.50;;;;;;;;;;5034614;28;20457;-79
2023/05/22 07:30:41;;;;;;;13.27;10.87;;;;;;;;;;5033586;28;20481;-79
2023/05/22 07:33:10;;;;;;;11.33;10.13;;;;;;;;;;5033371;28;20446;-79
2023/05/22 07:35:36;;;;;;;11.43;10.40;;;;;;;;;;5033204;28;20502;-79
2023/05/22 07:38:03;;;;;;;12.37;11.17;;;;;;;;;;5034945;28;20990;-79
2023/05/22 07:40:30;;;;;;;16.23;12.30;;;;;;;;;;5029159;28;20481;-79
2023/05/22 07:42:56;;;;;;;12.03;10.93;;;;;;;;;;5035531;28;20856;-79
2023/05/22 07:45:22;;;;;;;13.47;12.17;;;;;;;;;;5030033;28;20446;-78
2023/05/22 07:47:49;;;;;;;13.60;11.63;;;;;;;;;;5033121;28;20460;-79
2023/05/22 07:50:16;;;;;;;13.20;11.90;;;;;;;;;;5028721;28;20462;-79
2023/05/22 07:52:43;;;;;;;13.80;12.17;;;;;;;;;;5034477;28;20954;-79
2023/05/22 07:55:10;;;;;;;11.77;10.67;;;;;;;;;;5033412;28;20472;-79
2023/05/22 07:57:37;;;;;;;18.63;11.67;;;;;;;;;;5032424;28;20450;-79
2023/05/22 08:00:08;;;;;;;13.33;11.93;;;;;;;;;;5035756;28;20472;-79
2023/05/22 08:02:34;;;;;;;12.90;11.30;;;;;;;;;;5036218;28;20463;-79
2023/05/22 08:05:01;;;;;;;15.00;11.43;;;;;;;;;;5013230;28;20474;-79
2023/05/22 08:07:28;;;;;;;15.13;11.83;;;;;;;;;;5031418;28;20458;-79
2023/05/22 08:09:55;;;;;;;19.33;12.40;;;;;;;;;;5029795;28;20473;-79
2023/05/22 08:12:21;;;;;;;14.93;12.73;;;;;;;;;;5032205;28;20460;-79
2023/05/22 08:14:47;;;;;;;13.63;12.23;;;;;;;;;;5034331;28;20476;-79
2023/05/22 08:17:14;;;;;;;15.40;13.67;;;;;;;;;;5035025;28;20480;-79
2023/05/22 08:19:40;;;;;;;14.37;12.37;;;;;;;;;;5034407;28;20474;-79
2023/05/22 08:22:07;;;;;;;16.13;12.60;;;;;;;;;;5029828;28;20461;-79
2023/05/22 08:24:35;;;;;;;13.60;12.30;;;;;;;;;;5025371;28;20463;-79
2023/05/22 08:27:01;;;;;;;16.40;13.60;;;;;;;;;;5027904;28;20841;-79
2023/05/22 08:29:28;;;;;;;13.70;12.30;;;;;;;;;;5026776;28;20476;-79
2023/05/22 08:31:55;;;;;;;14.70;12.33;;;;;;;;;;5032782;28;20544;-79
2023/05/22 08:34:22;;;;;;;16.50;12.90;;;;;;;;;;5032532;28;20857;-79
2023/05/22 08:36:49;;;;;;;15.13;13.60;;;;;;;;;;5018114;28;20460;-79
2023/05/22 08:39:16;;;;;;;16.10;12.60;;;;;;;;;;5033660;28;20993;-79
2023/05/22 08:41:44;;;;;;;14.27;12.87;;;;;;;;;;5001718;28;20481;-79
2023/05/22 08:44:12;;;;;;;13.27;11.87;;;;;;;;;;5034711;28;20472;-79
2023/05/22 08:46:40;;;;;;;14.63;13.20;;;;;;;;;;5032462;28;20435;-79
2023/05/22 08:49:06;;;;;;;13.43;12.23;;;;;;;;;;5033080;28;20555;-79
2023/05/22 08:51:34;;;;;;;16.97;13.70;;;;;;;;;;5026522;28;20487;-78
2023/05/22 08:54:04;;;;;;;14.00;12.20;;;;;;;;;;5032326;28;20476;-79
2023/05/22 08:56:31;;;;;;;14.30;11.77;;;;;;;;;;5030166;28;20935;-79
2023/05/22 08:58:59;;;;;;;13.67;12.27;;;;;;;;;;5016097;28;20472;-79
2023/05/22 09:01:26;;;;;;;12.70;11.40;;;;;;;;;;5036400;28;20849;-79
2023/05/22 09:03:52;;;;;;;19.10;12.50;;;;;;;;;;5032058;28;20476;-79
2023/05/22 09:06:19;;;;;;;15.60;12.70;;;;;;;;;;5030270;28;20448;-79
2023/05/22 09:08:45;;;;;;;11.73;10.63;;;;;;;;;;5026427;28;20476;-79
2023/05/22 09:11:12;;;;;;;12.47;10.93;;;;;;;;;;5013067;28;20927;-79
2023/05/22 09:13:38;;;;;;;14.70;11.57;;;;;;;;;;5032017;28;20495;-79
2023/05/22 09:16:09;;;;;;;11.70;10.60;;;;;;;;;;5008413;28;20465;-79
2023/05/22 09:18:36;;;;;;;19.57;12.07;;;;;;;;;;5027896;28;20527;-79
2023/05/22 09:21:03;;;;;;;14.40;12.50;;;;;;;;;;5031464;28;20476;-79
2023/05/22 09:23:29;;;;;;;13.97;11.33;;;;;;;;;;5022814;28;21022;-79
2023/05/22 09:25:56;;;;;;;13.33;12.07;;;;;;;;;;5031786;28;20488;-78
2023/05/22 09:28:22;;;;;;;14.23;12.27;;;;;;;;;;5030393;28;20983;-79
2023/05/22 09:30:49;;;;;;;14.90;12.70;;;;;;;;;;5029393;28;20457;-79
2023/05/22 09:33:17;;;;;;;15.27;13.77;;;;;;;;;;5027543;28;20522;-79
2023/05/22 09:35:44;;;;;;;16.00;11.50;;;;;;;;;;5031776;28;20457;-79
2023/05/22 09:38:11;;;;;;;15.10;12.57;;;;;;;;;;5032372;28;20489;-79
2023/05/22 09:40:38;;;;;;;14.70;13.30;;;;;;;;;;5032922;28;20485;-79
2023/05/22 09:43:07;;;;;;;14.20;12.70;;;;;;;;;;5028557;28;20456;-79
2023/05/22 09:45:34;;;;;;;14.03;12.60;;;;;;;;;;5033045;28;20467;-79
2023/05/22 09:48:02;;;;;;;13.80;12.30;;;;;;;;;;5031988;28;20488;-79
2023/05/22 09:50:30;;;;;;;14.87;13.37;;;;;;;;;;5015539;28;20464;-79
2023/05/22 09:52:56;;;;;;;13.30;11.93;;;;;;;;;;5038925;28;20449;-79
2023/05/22 09:55:23;;;;;;;19.43;13.57;;;;;;;;;;5033098;28;20823;-79
2023/05/22 09:57:52;;;;;;;15.97;13.20;;;;;;;;;;5023004;28;20477;-79
2023/05/22 10:00:19;;;;;;;16.10;14.40;;;;;;;;;;5024788;28;20437;-79
2023/05/22 10:02:48;;;;;;;15.67;14.00;;;;;;;;;;5029556;28;20450;-79
2023/05/22 10:05:20;;;;;;;16.20;13.60;;;;;;;;;;5029982;28;20818;-79
2023/05/22 10:07:48;;;;;;;16.63;13.97;;;;;;;;;;5028604;28;21019;-79
2023/05/22 10:10:17;;;;;;;13.90;12.47;;;;;;;;;;5034843;28;20440;-78
2023/05/22 10:12:45;;;;;;;18.60;14.30;;;;;;;;;;5033902;28;20464;-79
2023/05/22 10:15:12;;;;;;;14.33;13.03;;;;;;;;;;5033380;28;20779;-78
2023/05/22 10:17:39;;;;;;;18.33;15.47;;;;;;;;;;4997176;28;20524;-79
2023/05/22 10:20:06;;;;;;;15.93;13.90;;;;;;;;;;5032706;28;20461;-78
2023/05/22 10:22:34;;;;;;;17.33;15.50;;;;;;;;;;5025299;28;21085;-79
2023/05/22 10:25:02;;;;;;;17.50;15.77;;;;;;;;;;5023664;28;20991;-78
2023/05/22 10:27:28;;;;;;;18.97;15.30;;;;;;;;;;5033369;28;20487;-78
2023/05/22 10:29:58;;;;;;;19.43;16.57;;;;;;;;;;5034068;28;20472;-79
2023/05/22 10:32:27;;;;;;;20.17;16.10;;;;;;;;;;5031417;28;20536;-78
2023/05/22 10:34:57;;;;;;;17.23;15.60;;;;;;;;;;5031154;28;20473;-79
2023/05/22 10:37:31;;;;;;;18.23;16.17;;;;;;;;;;5031800;28;20481;-79
2023/05/22 10:40:01;;;;;;;24.60;16.13;;;;;;;;;;5030972;28;20469;-79
2023/05/22 10:42:30;;;;;;;17.40;15.67;;;;;;;;;;5028877;28;20484;-79
2023/05/22 10:44:56;;;;;;;23.60;18.53;;;;;;;;;;5025122;28;20483;-79
2023/05/22 10:47:23;;;;;;;19.77;17.37;;;;;;;;;;5028765;28;20461;-78
2023/05/22 10:49:50;;;;;;;18.47;16.67;;;;;;;;;;5023825;28;21021;-79
2023/05/22 10:52:20;;;;;;;21.40;17.80;;;;;;;;;;5023513;28;20464;-79
2023/05/22 10:54:52;;;;;;;22.60;18.53;;;;;;;;;;5024001;28;20476;-79
2023/05/22 10:57:19;;;;;;;20.90;17.70;;;;;;;;;;5028775;28;20531;-79
2023/05/22 10:59:48;;;;;;;22.00;18.70;;;;;;;;;;5032172;28;20507;-79
2023/05/22 11:02:21;;;;;;;20.80;18.07;;;;;;;;;;5025107;28;20485;-79
2023/05/22 11:04:47;;;;;;;21.63;19.63;;;;;;;;;;5031711;28;20552;-79
2023/05/22 11:07:14;;;;;;;22.80;19.13;;;;;;;;;;5015668;28;20500;-79
2023/05/22 11:09:42;;;;;;;21.60;19.23;;;;;;;;;;5031300;28;20469;-79
2023/05/22 11:12:14;;;;;;;22.80;20.47;;;;;;;;;;5031879;28;20453;-79
2023/05/22 11:14:41;;;;;;;24.40;19.73;;;;;;;;;;5030378;28;20491;-79
2023/05/22 11:17:11;;;;;;;23.90;21.30;;;;;;;;;;5028995;28;20481;-79
2023/05/22 11:19:39;;;;;;;27.17;23.00;;;;;;;;;;5031690;28;20485;-79
2023/05/22 11:22:06;;;;;;;23.80;21.17;;;;;;;;;;5007043;28;20489;-78
2023/05/22 11:24:33;;;;;;;23.53;21.00;;;;;;;;;;5030248;28;20476;-80
2023/05/22 11:27:05;;;;;;;23.53;21.17;;;;;;;;;;5028569;28;20465;-78
2023/05/22 11:29:32;;;;;;;23.87;21.57;;;;;;;;;;5023035;28;20504;-79
2023/05/22 11:31:58;;;;;;;27.13;21.77;;;;;;;;;;5025905;28;20457;-79
2023/05/22 11:34:26;;;;;;;22.43;20.13;;;;;;;;;;5032044;28;20476;-79
2023/05/22 11:36:57;;;;;;;24.03;20.20;;;;;;;;;;5027878;28;20485;-79
2023/05/22 11:39:23;;;;;;;22.70;20.40;;;;;;;;;;5029604;28;20468;-79
2023/05/22 11:41:49;;;;;;;22.00;19.77;;;;;;;;;;5009281;28;20476;-79
2023/05/22 11:44:19;;;;;;;25.70;19.60;;;;;;;;;;5029790;28;20460;-79
2023/05/22 11:46:46;;;;;;;21.60;18.07;;;;;;;;;;5011751;28;20450;-78
2023/05/22 11:49:13;;;;;;;21.03;18.83;;;;;;;;;;5026816;28;20476;-79
2023/05/22 11:51:40;;;;;;;22.87;19.13;;;;;;;;;;5033263;28;21044;-79
2023/05/22 11:54:07;;;;;;;24.53;19.03;;;;;;;;;;5025761;28;20508;-79
2023/05/22 11:56:33;;;;;;;22.73;20.40;;;;;;;;;;5009564;28;20461;-79
2023/05/22 11:59:00;;;;;;;20.03;18.07;;;;;;;;;;5027906;28;20472;-79
2023/05/22 12:01:26;;;;;;;21.30;18.30;;;;;;;;;;5028941;28;20503;-79
2023/05/22 12:03:53;;;;;;;18.77;16.70;;;;;;;;;;5028964;28;20496;-79
2023/05/22 12:06:20;;;;;;;19.50;16.83;;;;;;;;;;5029131;28;20484;-78
2023/05/22 12:08:47;;;;;;;21.83;16.80;;;;;;;;;;5034900;28;20465;-79
2023/05/22 12:11:14;;;;;;;18.67;16.77;;;;;;;;;;5035597;28;20456;-79
2023/05/22 12:13:40;;;;;;;20.83;18.03;;;;;;;;;;5026960;28;21012;-79
2023/05/22 12:16:18;;;;;;;19.63;17.40;;;;;;;;;;5034338;28;20516;-79
2023/05/22 12:18:44;;;;;;;16.90;15.13;;;;;;;;;;5030945;28;20488;-79
2023/05/22 12:21:11;;;;;;;19.73;16.73;;;;;;;;;;5015129;28;20472;-79
2023/05/22 12:23:47;;;;;;;25.83;18.17;;;;;;;;;;5030753;28;20476;-79
2023/05/22 12:26:15;;;;;;;17.83;16.13;;;;;;;;;;5035512;28;20476;-79
2023/05/22 12:28:41;;;;;;;20.17;17.47;;;;;;;;;;5034960;28;20476;-79
2023/05/22 12:31:08;;;;;;;20.30;17.80;;;;;;;;;;5015957;28;20998;-79
2023/05/22 12:33:34;;;;;;;18.90;16.10;;;;;;;;;;5031404;28;20599;-79
2023/05/22 12:36:07;;;;;;;24.40;18.50;;;;;;;;;;5036078;28;20441;-79
2023/05/22 12:38:33;;;;;;;18.20;16.50;;;;;;;;;;5032121;28;20472;-79
2023/05/22 12:41:00;;;;;;;22.00;17.40;;;;;;;;;;5029694;28;20492;-79
2023/05/22 12:43:27;;;;;;;20.00;17.47;;;;;;;;;;5028808;28;20479;-79
2023/05/22 12:45:54;;;;;;;21.87;18.97;;;;;;;;;;5035366;28;20461;-79
2023/05/22 12:48:21;;;;;;;19.53;17.20;;;;;;;;;;5031549;28;20476;-79
2023/05/22 12:50:48;;;;;;;18.60;16.87;;;;;;;;;;5032939;28;20466;-79
2023/05/22 12:53:14;;;;;;;18.23;16.53;;;;;;;;;;5034723;28;20460;-79
2023/05/22 12:55:41;;;;;;;20.57;16.30;;;;;;;;;;5031437;28;20452;-79
2023/05/22 12:58:07;;;;;;;19.23;17.33;;;;;;;;;;5031695;28;20473;-79
2023/05/22 13:00:35;;;;;;;19.23;17.30;;;;;;;;;;5028534;28;20462;-79
2023/05/22 13:03:03;;;;;;;20.70;18.17;;;;;;;;;;5033554;28;20468;-79
2023/05/22 13:05:29;;;;;;;19.67;17.63;;;;;;;;;;5035261;28;20817;-79
2023/05/22 13:07:55;;;;;;;19.93;16.73;;;;;;;;;;5029132;28;20485;-80
2023/05/22 13:10:22;;;;;;;21.33;17.60;;;;;;;;;;5030836;28;20797;-78
2023/05/22 13:12:50;;;;;;;18.47;16.57;;;;;;;;;;5011447;28;20445;-79
2023/05/22 13:15:16;;;;;;;20.27;17.57;;;;;;;;;;5028215;28;20452;-78
2023/05/22 13:17:44;;;;;;;18.00;16.23;;;;;;;;;;5034316;28;20833;-78
2023/05/22 13:20:11;;;;;;;18.73;16.70;;;;;;;;;;5033999;28;20499;-78
2023/05/22 13:22:38;;;;;;;20.67;17.50;;;;;;;;;;5036016;28;20481;-79
2023/05/22 13:25:04;;;;;;;16.30;14.63;;;;;;;;;;5030042;28;20475;-79
2023/05/22 13:27:31;;;;;;;18.80;14.83;;;;;;;;;;5032061;28;20936;-78
2023/05/22 13:29:57;;;;;;;18.50;16.47;;;;;;;;;;5028470;28;20473;-78
2023/05/22 13:32:24;;;;;;;18.30;16.60;;;;;;;;;;5030361;28;20449;-78
2023/05/22 13:34:52;;;;;;;19.17;17.13;;;;;;;;;;5033289;28;20508;-78
2023/05/22 13:37:18;;;;;;;19.27;17.07;;;;;;;;;;5030506;28;20475;-78
2023/05/22 13:39:44;;;;;;;19.50;16.10;;;;;;;;;;5009842;28;20831;-78
2023/05/22 13:42:11;;;;;;;19.00;17.10;;;;;;;;;;5031840;28;20496;-78
2023/05/22 13:44:37;;;;;;;22.87;18.77;;;;;;;;;;5030030;28;20492;-78
2023/05/22 13:47:03;;;;;;;20.17;17.60;;;;;;;;;;5033799;28;20472;-77
2023/05/22 13:49:30;;;;;;;19.33;17.13;;;;;;;;;;5028251;28;20462;-78
2023/05/22 13:51:57;;;;;;;18.80;16.90;;;;;;;;;;5032319;28;20453;-78
2023/05/22 13:54:24;;;;;;;21.90;17.37;;;;;;;;;;5033430;28;20994;-78
2023/05/22 13:56:51;;;;;;;17.87;16.17;;;;;;;;;;5030547;28;20462;-78
2023/05/22 13:59:17;;;;;;;20.10;17.80;;;;;;;;;;5030345;28;20465;-78
2023/05/22 14:01:43;;;;;;;19.07;17.17;;;;;;;;;;5030719;28;20456;-78
2023/05/22 14:04:09;;;;;;;17.97;16.03;;;;;;;;;;5031003;28;20480;-78
2023/05/22 14:06:36;;;;;;;19.63;17.73;;;;;;;;;;5027553;28;20493;-79
2023/05/22 14:09:06;;;;;;;17.73;16.10;;;;;;;;;;5011679;28;20488;-78
2023/05/22 14:11:32;;;;;;;21.07;18.90;;;;;;;;;;5031157;28;20518;-78
2023/05/22 14:13:58;;;;;;;21.13;18.40;;;;;;;;;;5025866;28;20469;-78
2023/05/22 14:16:24;;;;;;;22.10;18.67;;;;;;;;;;5031993;28;21001;-78